createdAt,value
2018-07-29T00:02:03.733Z,18.10
2018-07-29T00:04:32.448Z,18.60
2018-07-29T00:07:00.818Z,19.85
2018-07-29T00:09:29.138Z,17.90
2018-07-29T00:11:57.231Z,18.17
2018-07-29T00:14:25.273Z,19.12
2018-07-29T00:16:53.321Z,18.37
2018-07-29T00:19:21.386Z,18.95
2018-07-29T00:21:49.419Z,17.95
2018-07-29T00:24:18.435Z,17.40
2018-07-29T00:26:46.479Z,18.65
2018-07-29T00:29:14.511Z,19.57
2018-07-29T00:31:42.884Z,19.40
2018-07-29T00:34:10.906Z,20.27
2018-07-29T00:36:39.501Z,18.70
2018-07-29T00:39:08.078Z,17.73
2018-07-29T00:41:36.641Z,18.48
2018-07-29T00:44:04.745Z,17.70
2018-07-29T00:46:33.122Z,17.27
2018-07-29T00:49:01.464Z,18.23
2018-07-29T00:51:30.189Z,17.62
2018-07-29T00:53:58.221Z,18.10
2018-07-29T00:56:26.335Z,18.80
2018-07-29T00:58:54.718Z,19.70
2018-07-29T01:01:22.765Z,18.23
2018-07-29T01:03:51.070Z,17.20
2018-07-29T01:06:19.833Z,17.30
2018-07-29T01:08:48.150Z,18.40
2018-07-29T01:11:16.171Z,17.32
2018-07-29T01:13:44.225Z,17.25
2018-07-29T01:16:12.249Z,17.12
2018-07-29T01:18:40.629Z,16.50
2018-07-29T01:21:09.416Z,16.30
2018-07-29T01:23:37.852Z,15.20
2018-07-29T01:26:06.262Z,15.55
2018-07-29T01:28:34.672Z,14.30
2018-07-29T01:31:03.338Z,13.35
2018-07-29T01:33:31.713Z,11.13
2018-07-29T01:35:59.837Z,12.28
2018-07-29T01:38:27.981Z,11.12
2018-07-29T01:40:56.632Z,9.50
2018-07-29T01:43:24.961Z,11.50
2018-07-29T01:45:53.609Z,10.85
2018-07-29T01:48:21.686Z,8.65
2018-07-29T01:50:49.669Z,9.63
2018-07-29T01:53:18.545Z,9.40
2018-07-29T01:55:46.582Z,8.35
2018-07-29T01:58:14.899Z,7.90
2018-07-29T02:00:43.269Z,7.80
2018-07-29T02:03:11.261Z,6.92
2018-07-29T02:05:39.621Z,7.58
2018-07-29T02:08:08.001Z,6.92
2018-07-29T02:10:36.291Z,6.62
2018-07-29T02:13:04.970Z,6.10
2018-07-29T02:15:32.977Z,5.50
2018-07-29T02:18:01.055Z,4.78
2018-07-29T02:20:29.385Z,4.57
2018-07-29T02:22:57.765Z,4.20
2018-07-29T02:25:25.802Z,4.45
2018-07-29T02:27:54.102Z,4.78
2018-07-29T02:30:22.179Z,4.33
2018-07-29T02:32:50.774Z,4.40
2018-07-29T02:35:19.246Z,4.83
2018-07-29T02:37:47.609Z,4.50
2018-07-29T02:40:15.695Z,4.40
2018-07-29T02:42:44.390Z,4.25
2018-07-29T02:45:12.475Z,4.50
2018-07-29T02:47:40.846Z,4.47
2018-07-29T02:50:08.954Z,5.50
2018-07-29T02:52:37.393Z,5.15
2018-07-29T02:55:05.495Z,4.28
2018-07-29T02:57:33.991Z,3.90
2018-07-29T03:00:02.154Z,4.60
2018-07-29T03:02:31.318Z,4.20
2018-07-29T03:05:01.230Z,4.55
2018-07-29T03:07:29.244Z,4.30
2018-07-29T03:09:57.578Z,4.55
2018-07-29T03:12:25.965Z,4.37
2018-07-29T03:14:53.956Z,4.35
2018-07-29T03:17:22.336Z,4.15
2018-07-29T03:19:50.442Z,3.83
2018-07-29T03:22:18.688Z,4.65
2018-07-29T03:24:47.346Z,4.28
2018-07-29T03:27:15.422Z,4.58
2018-07-29T03:29:43.440Z,4.27
2018-07-29T03:32:11.529Z,4.67
2018-07-29T03:34:40.022Z,4.65
2018-07-29T03:37:08.301Z,4.43
2018-07-29T03:39:36.685Z,4.05
2018-07-29T03:42:04.876Z,3.80
2018-07-29T03:44:33.254Z,4.30
2018-07-29T03:47:01.642Z,4.25
2018-07-29T03:49:29.732Z,4.12
2018-07-29T03:51:58.065Z,4.42
2018-07-29T03:54:26.461Z,4.37
2018-07-29T03:56:54.519Z,4.72
2018-07-29T03:59:22.586Z,4.80
2018-07-29T04:01:50.964Z,4.00
2018-07-29T04:04:19.376Z,4.50
2018-07-29T04:06:47.710Z,4.60
2018-07-29T04:09:16.438Z,4.20
2018-07-29T04:11:44.709Z,4.22
2018-07-29T04:14:12.701Z,3.95
2018-07-29T04:16:40.762Z,4.40
2018-07-29T04:19:09.107Z,4.47
2018-07-29T04:21:38.858Z,4.17
2018-07-29T04:24:07.811Z,4.00
2018-07-29T04:26:36.238Z,4.80
2018-07-29T04:29:04.595Z,4.03
2018-07-29T04:31:33.288Z,4.10
2018-07-29T04:34:01.290Z,4.55
2018-07-29T04:36:29.638Z,4.00
2018-07-29T04:38:58.015Z,4.20
2018-07-29T04:41:26.498Z,4.37
2018-07-29T04:43:55.386Z,3.70
2018-07-29T04:46:24.279Z,4.50
2018-07-29T04:48:52.382Z,4.20
2018-07-29T04:51:20.674Z,4.30
2018-07-29T04:53:48.930Z,4.30
2018-07-29T04:56:17.290Z,4.20
2018-07-29T04:58:45.571Z,4.60
2018-07-29T05:01:13.695Z,4.22
2018-07-29T05:03:41.742Z,4.33
2018-07-29T05:06:09.799Z,3.75
2018-07-29T05:08:38.113Z,4.50
2018-07-29T05:11:06.351Z,4.47
2018-07-29T05:13:34.709Z,4.50
2018-07-29T05:16:03.403Z,4.90
2018-07-29T05:18:31.768Z,4.67
2018-07-29T05:20:59.825Z,4.90
2018-07-29T05:23:27.881Z,4.60
2018-07-29T05:25:55.899Z,4.70
2018-07-29T05:28:24.281Z,4.72
2018-07-29T05:30:53.256Z,4.72
2018-07-29T05:33:21.472Z,4.70
2018-07-29T05:35:50.013Z,4.60
2018-07-29T05:38:18.114Z,4.53
2018-07-29T05:40:46.433Z,4.33
2018-07-29T05:43:15.365Z,5.45
2018-07-29T05:45:43.617Z,4.60
2018-07-29T05:48:11.910Z,4.50
2018-07-29T05:50:39.946Z,5.05
2018-07-29T05:53:08.259Z,4.83
2018-07-29T05:55:36.656Z,5.08
2018-07-29T05:58:05.128Z,5.10
2018-07-29T06:00:33.507Z,4.47
2018-07-29T06:03:01.841Z,4.30
2018-07-29T06:05:29.840Z,4.37
2018-07-29T06:07:57.873Z,4.00
2018-07-29T06:10:26.514Z,4.10
2018-07-29T06:12:54.548Z,4.00
2018-07-29T06:15:22.650Z,4.20
2018-07-29T06:17:50.666Z,4.10
2018-07-29T06:20:19.007Z,4.60
2018-07-29T06:22:47.137Z,3.80
2018-07-29T06:25:15.175Z,4.22
2018-07-29T06:27:43.216Z,4.83
2018-07-29T06:30:11.265Z,4.20
2018-07-29T06:32:39.645Z,4.50
2018-07-29T06:35:07.710Z,4.12
2018-07-29T06:37:35.786Z,4.00
2018-07-29T06:40:03.910Z,4.58
2018-07-29T06:42:32.244Z,3.75
2018-07-29T06:45:00.675Z,3.20
2018-07-29T06:47:29.100Z,3.62
2018-07-29T06:49:57.507Z,3.58
2018-07-29T06:52:25.638Z,3.60
2018-07-29T06:54:54.194Z,3.90
2018-07-29T06:57:22.740Z,4.43
2018-07-29T06:59:50.851Z,3.20
2018-07-29T07:02:18.922Z,3.80
2018-07-29T07:04:47.051Z,4.27
2018-07-29T07:07:15.462Z,3.90
2018-07-29T07:09:43.551Z,3.70
2018-07-29T07:12:12.832Z,3.30
2018-07-29T07:14:41.910Z,3.70
2018-07-29T07:17:09.954Z,4.10
2018-07-29T07:19:37.998Z,3.55
2018-07-29T07:22:05.996Z,3.67
2018-07-29T07:24:34.190Z,3.90
2018-07-29T07:27:02.602Z,3.90
2018-07-29T07:29:30.661Z,3.60
2018-07-29T07:31:59.010Z,4.00
2018-07-29T07:34:27.812Z,3.60
2018-07-29T07:36:55.943Z,3.20
2018-07-29T07:39:24.237Z,3.63
2018-07-29T07:41:52.370Z,4.20
2018-07-29T07:44:20.720Z,2.90
2018-07-29T07:46:48.769Z,3.20
2018-07-29T07:51:04.177Z,2.87
2018-07-29T07:53:32.177Z,3.97
2018-07-29T07:56:00.834Z,3.60
2018-07-29T07:58:29.212Z,3.52
2018-07-29T08:00:57.320Z,4.20
2018-07-29T08:03:25.645Z,2.95
2018-07-29T08:05:54.150Z,3.33
2018-07-29T08:08:22.210Z,3.40
2018-07-29T08:10:50.278Z,4.10
2018-07-29T08:13:18.413Z,3.30
2018-07-29T08:15:46.547Z,3.15
2018-07-29T08:18:15.232Z,3.20
2018-07-29T08:20:46.047Z,3.65
2018-07-29T08:23:14.673Z,3.40
2018-07-29T08:25:43.449Z,3.80
2018-07-29T08:28:11.523Z,3.70
2018-07-29T08:30:39.556Z,3.87
2018-07-29T08:33:07.738Z,3.50
2018-07-29T08:35:36.033Z,3.65
2018-07-29T08:38:04.192Z,4.42
2018-07-29T08:40:32.686Z,3.50
2018-07-29T08:43:00.767Z,4.00
2018-07-29T08:45:29.136Z,3.00
2018-07-29T08:47:57.399Z,3.00
2018-07-29T08:50:25.594Z,3.60
2018-07-29T08:52:53.870Z,3.97
2018-07-29T08:55:21.942Z,3.07
2018-07-29T08:57:50.017Z,2.80
2018-07-29T09:00:18.054Z,2.52
2018-07-29T09:02:46.164Z,2.40
2018-07-29T09:05:14.251Z,3.10
2018-07-29T09:07:42.309Z,3.40
2018-07-29T09:10:10.573Z,2.80
2018-07-29T09:12:38.926Z,3.10
2018-07-29T09:15:07.316Z,3.60
2018-07-29T09:17:35.364Z,2.87
2018-07-29T09:20:03.547Z,3.02
2018-07-29T09:22:31.963Z,3.15
2018-07-29T09:25:00.266Z,2.90
2018-07-29T09:27:28.778Z,2.80
2018-07-29T09:29:57.101Z,3.77
2018-07-29T09:32:25.463Z,3.40
2018-07-29T09:34:54.089Z,2.80
2018-07-29T09:37:22.106Z,3.10
2018-07-29T09:39:50.608Z,3.22
2018-07-29T09:42:18.596Z,3.65
2018-07-29T09:44:46.864Z,3.10
2018-07-29T09:47:14.950Z,3.22
2018-07-29T09:49:43.038Z,3.60
2018-07-29T09:52:11.335Z,3.43
2018-07-29T09:54:39.406Z,3.67
2018-07-29T09:57:07.718Z,3.15
2018-07-29T09:59:35.771Z,3.02
2018-07-29T10:02:03.781Z,3.30
2018-07-29T10:04:32.109Z,2.43
2018-07-29T10:07:00.209Z,2.73
2018-07-29T10:09:32.807Z,2.97
2018-07-29T10:12:01.198Z,2.70
2018-07-29T10:14:29.841Z,2.77
2018-07-29T10:16:59.075Z,2.80
2018-07-29T10:19:27.385Z,2.55
2018-07-29T10:21:55.669Z,2.52
2018-07-29T10:24:23.907Z,2.77
2018-07-29T10:26:52.696Z,2.42
2018-07-29T10:29:21.044Z,3.20
2018-07-29T10:31:49.859Z,2.75
2018-07-29T10:34:18.547Z,2.67
2018-07-29T10:36:47.021Z,2.98
2018-07-29T10:39:16.321Z,2.30
2018-07-29T10:41:45.222Z,2.40
2018-07-29T10:44:14.155Z,2.40
2018-07-29T10:46:42.510Z,2.90
2018-07-29T10:49:10.807Z,2.60
2018-07-29T10:51:38.818Z,2.30
2018-07-29T10:54:07.127Z,2.47
2018-07-29T10:56:35.411Z,4.50
2018-07-29T10:59:03.583Z,2.37
2018-07-29T11:01:31.755Z,2.20
2018-07-29T11:04:00.226Z,2.80
2018-07-29T11:06:28.689Z,2.33
2018-07-29T11:08:56.722Z,2.20
2018-07-29T11:11:24.895Z,2.33
2018-07-29T11:13:53.107Z,2.30
2018-07-29T11:16:21.402Z,2.33
2018-07-29T11:18:49.956Z,2.37
2018-07-29T11:21:18.522Z,2.30
2018-07-29T11:23:47.101Z,2.40
2018-07-29T11:26:15.949Z,2.40
2018-07-29T11:28:44.233Z,2.40
2018-07-29T11:31:12.315Z,2.55
2018-07-29T11:33:40.494Z,2.30
2018-07-29T11:36:08.583Z,2.50
2018-07-29T11:38:36.525Z,2.50
2018-07-29T11:41:05.089Z,2.70
2018-07-29T11:43:33.357Z,2.65
2018-07-29T11:46:02.072Z,2.50
2018-07-29T11:48:30.410Z,2.58
2018-07-29T11:50:58.931Z,2.60
2018-07-29T11:53:27.298Z,2.80
2018-07-29T11:55:55.614Z,2.70
2018-07-29T11:58:23.954Z,2.80
2018-07-29T12:00:52.540Z,2.50
2018-07-29T12:03:21.091Z,2.70
2018-07-29T12:05:49.133Z,2.55
2018-07-29T12:08:17.546Z,2.40
2018-07-29T12:10:45.834Z,2.70
2018-07-29T12:13:14.325Z,2.60
2018-07-29T12:15:42.382Z,2.50
2018-07-29T12:18:10.691Z,2.90
2018-07-29T12:20:39.470Z,2.60
2018-07-29T12:23:07.513Z,3.08
2018-07-29T12:25:35.738Z,2.70
2018-07-29T12:28:04.427Z,3.08
2018-07-29T12:30:32.954Z,2.90
2018-07-29T12:33:01.803Z,2.60
2018-07-29T12:35:30.523Z,2.50
2018-07-29T12:37:59.668Z,3.10
2018-07-29T12:40:28.046Z,3.20
2018-07-29T12:42:56.931Z,3.22
2018-07-29T12:45:25.153Z,3.10
2018-07-29T12:47:53.606Z,3.00
2018-07-29T12:50:21.969Z,2.60
2018-07-29T12:52:50.771Z,2.75
2018-07-29T12:55:18.909Z,2.80
2018-07-29T12:57:47.430Z,2.77
2018-07-29T13:00:15.742Z,2.90
2018-07-29T13:02:44.074Z,2.90
2018-07-29T13:05:12.402Z,2.47
2018-07-29T13:07:40.549Z,2.70
2018-07-29T13:10:08.598Z,3.00
2018-07-29T13:12:36.698Z,3.00
2018-07-29T13:15:05.089Z,2.80
2018-07-29T13:17:33.634Z,2.40
2018-07-29T13:20:01.986Z,2.92
2018-07-29T13:22:30.129Z,2.47
2018-07-29T13:24:58.473Z,2.58
2018-07-29T13:27:26.538Z,2.40
2018-07-29T13:29:54.868Z,2.20
2018-07-29T13:32:22.943Z,2.30
2018-07-29T13:34:51.199Z,2.40
2018-07-29T13:37:19.291Z,2.30
2018-07-29T13:39:47.779Z,1.63
2018-07-29T13:42:16.093Z,1.90
2018-07-29T13:44:44.197Z,2.10
2018-07-29T13:47:12.283Z,1.85
2018-07-29T13:49:40.818Z,2.00
2018-07-29T13:52:09.368Z,1.55
2018-07-29T13:54:37.776Z,2.00
2018-07-29T13:57:06.052Z,2.10
2018-07-29T13:59:34.501Z,2.20
2018-07-29T14:02:02.918Z,1.90
2018-07-29T14:04:31.269Z,2.00
2018-07-29T14:06:59.322Z,1.90
2018-07-29T14:09:27.854Z,1.90
2018-07-29T14:11:56.490Z,1.90
2018-07-29T14:14:24.480Z,2.02
2018-07-29T14:16:52.887Z,1.60
2018-07-29T14:19:21.162Z,1.90
2018-07-29T14:21:49.293Z,2.20
2018-07-29T14:24:17.389Z,2.00
2018-07-29T14:26:45.912Z,1.80
2018-07-29T14:29:14.573Z,1.82
2018-07-29T14:31:42.695Z,2.10
2018-07-29T14:34:10.917Z,2.00
2018-07-29T14:36:39.003Z,1.82
2018-07-29T14:39:08.217Z,1.75
2018-07-29T14:41:36.590Z,1.70
2018-07-29T14:44:04.958Z,1.90
2018-07-29T14:46:33.049Z,2.10
2018-07-29T14:49:01.379Z,2.00
2018-07-29T14:51:29.786Z,1.73
2018-07-29T14:53:58.279Z,1.87
2018-07-29T14:56:26.645Z,2.30
2018-07-29T14:58:55.334Z,2.62
2018-07-29T15:01:23.410Z,2.20
2018-07-29T15:03:51.997Z,2.02
2018-07-29T15:06:20.669Z,1.70
2018-07-29T15:08:48.736Z,1.70
2018-07-29T15:11:16.750Z,1.80
2018-07-29T15:13:44.876Z,1.72
2018-07-29T15:16:13.296Z,1.90
2018-07-29T15:18:41.294Z,2.00
2018-07-29T15:21:09.314Z,2.10
2018-07-29T15:23:37.355Z,1.80
2018-07-29T15:26:05.741Z,1.70
2018-07-29T15:30:17.427Z,1.80
2018-07-29T15:32:45.821Z,1.60
2018-07-29T15:35:13.837Z,1.80
2018-07-29T15:37:41.977Z,1.60
2018-07-29T15:40:10.989Z,1.90
2018-07-29T15:42:39.797Z,1.90
2018-07-29T15:45:07.817Z,2.30
2018-07-29T15:47:36.231Z,1.90
2018-07-29T15:50:04.819Z,1.62
2018-07-29T15:52:33.394Z,1.80
2018-07-29T15:55:01.538Z,1.80
2018-07-29T15:57:29.625Z,1.82
2018-07-29T15:59:58.013Z,1.77
2018-07-29T16:02:26.043Z,1.82
2018-07-29T16:04:54.145Z,1.75
2018-07-29T16:07:22.193Z,1.90
2018-07-29T16:09:50.884Z,2.00
2018-07-29T16:12:19.193Z,1.80
2018-07-29T16:14:47.556Z,2.92
2018-07-29T16:17:15.627Z,2.12
2018-07-29T16:19:44.434Z,2.02
2018-07-29T16:22:13.127Z,2.80
2018-07-29T16:24:41.200Z,2.40
2018-07-29T16:27:10.090Z,2.67
2018-07-29T16:29:38.154Z,2.10
2018-07-29T16:32:07.193Z,2.02
2018-07-29T16:34:35.944Z,1.92
2018-07-29T16:37:04.069Z,1.70
2018-07-29T16:39:32.087Z,2.15
2018-07-29T16:42:00.137Z,1.70
2018-07-29T16:44:28.362Z,1.80
2018-07-29T16:46:56.541Z,1.60
2018-07-29T16:49:24.764Z,1.90
2018-07-29T16:51:53.161Z,1.70
2018-07-29T16:54:21.512Z,1.90
2018-07-29T16:56:49.919Z,1.67
2018-07-29T16:59:18.153Z,1.80
2018-07-29T17:01:46.482Z,1.80
2018-07-29T17:04:14.542Z,1.77
2018-07-29T17:06:43.238Z,1.90
2018-07-29T17:09:11.805Z,1.70
2018-07-29T17:11:40.464Z,1.57
2018-07-29T17:14:09.295Z,1.60
2018-07-29T17:16:37.634Z,1.70
2018-07-29T17:19:06.370Z,1.70
2018-07-29T17:21:34.625Z,2.00
2018-07-29T17:24:02.877Z,2.53
2018-07-29T17:26:31.910Z,1.90
2018-07-29T17:29:00.063Z,1.60
2018-07-29T17:31:28.054Z,1.70
2018-07-29T17:33:56.267Z,1.90
2018-07-29T17:36:25.009Z,1.90
2018-07-29T17:38:53.797Z,2.22
2018-07-29T17:41:22.231Z,2.25
2018-07-29T17:43:50.361Z,4.20
2018-07-29T17:46:18.454Z,3.00
2018-07-29T17:48:46.561Z,3.58
2018-07-29T17:51:14.597Z,3.20
2018-07-29T17:53:42.677Z,3.00
2018-07-29T17:56:11.249Z,3.20
2018-07-29T17:58:39.611Z,2.70
2018-07-29T18:01:07.930Z,2.80
2018-07-29T18:03:35.977Z,2.50
2018-07-29T18:06:04.349Z,2.53
2018-07-29T18:08:32.618Z,2.47
2018-07-29T18:11:01.117Z,2.60
2018-07-29T18:13:29.314Z,3.10
2018-07-29T18:15:57.887Z,3.90
2018-07-29T18:18:26.166Z,2.77
2018-07-29T18:20:54.273Z,2.70
2018-07-29T18:23:23.161Z,2.90
2018-07-29T18:25:51.389Z,2.50
2018-07-29T18:28:19.723Z,2.70
2018-07-29T18:30:47.729Z,2.77
2018-07-29T18:33:15.786Z,2.30
2018-07-29T18:35:43.918Z,2.50
2018-07-29T18:38:12.261Z,3.10
2018-07-29T18:40:40.367Z,2.60
2018-07-29T18:43:08.713Z,2.55
2018-07-29T18:45:37.024Z,2.90
2018-07-29T18:48:05.473Z,3.30
2018-07-29T18:50:33.497Z,4.90
2018-07-29T18:53:01.903Z,5.15
2018-07-29T18:56:56.326Z,2.90
2018-07-29T18:59:24.688Z,2.60
2018-07-29T19:01:52.824Z,2.70
2018-07-29T19:04:20.888Z,2.90
2018-07-29T19:06:48.986Z,2.85
2018-07-29T19:09:17.613Z,2.60
2018-07-29T19:11:45.750Z,2.95
2018-07-29T19:14:13.804Z,3.63
2018-07-29T19:16:41.931Z,3.20
2018-07-29T19:19:10.427Z,3.08
2018-07-29T19:21:38.762Z,3.57
2018-07-29T19:24:07.146Z,3.20
2018-07-29T19:26:35.793Z,3.50
2018-07-29T19:29:04.212Z,3.40
2018-07-29T19:31:32.613Z,3.22
2018-07-29T19:34:00.732Z,3.20
2018-07-29T19:36:28.830Z,3.10
2018-07-29T19:38:57.188Z,3.30
2018-07-29T19:41:25.213Z,3.20
2018-07-29T19:43:53.217Z,3.17
2018-07-29T19:46:21.261Z,3.08
2018-07-29T19:48:49.580Z,3.10
2018-07-29T19:51:17.981Z,3.60
2018-07-29T19:53:48.372Z,2.90
2018-07-29T19:56:16.475Z,3.12
2018-07-29T19:58:45.115Z,2.90
2018-07-29T20:01:13.435Z,3.22
2018-07-29T20:03:42.145Z,3.17
2018-07-29T20:06:10.234Z,3.40
2018-07-29T20:08:38.611Z,3.00
2018-07-29T20:11:06.835Z,3.00
2018-07-29T20:13:34.910Z,3.13
2018-07-29T20:16:03.221Z,3.10
2018-07-29T20:18:31.795Z,3.30
2018-07-29T20:21:00.481Z,3.60
2018-07-29T20:23:28.533Z,3.10
2018-07-29T20:25:56.930Z,3.30
2018-07-29T20:28:25.285Z,3.45
2018-07-29T20:30:53.601Z,3.20
2018-07-29T20:33:21.935Z,3.42
2018-07-29T20:35:50.219Z,3.20
2018-07-29T20:38:18.546Z,2.90
2018-07-29T20:40:46.636Z,3.25
2018-07-29T20:43:14.952Z,3.30
2018-07-29T20:45:43.042Z,2.90
2018-07-29T20:48:11.368Z,3.37
2018-07-29T20:50:39.372Z,3.50
2018-07-29T20:53:08.089Z,3.40
2018-07-29T20:55:36.358Z,3.20
2018-07-29T20:58:04.396Z,3.65
2018-07-29T21:00:32.686Z,3.35
2018-07-29T21:03:01.045Z,3.22
2018-07-29T21:05:29.108Z,3.40
2018-07-29T21:07:57.259Z,3.30
2018-07-29T21:10:25.601Z,3.60
2018-07-29T21:12:53.981Z,3.53
2018-07-29T21:15:22.370Z,4.12
2018-07-29T21:17:50.424Z,3.83
2018-07-29T21:20:18.813Z,3.90
2018-07-29T21:22:47.401Z,5.50
2018-07-29T21:25:15.882Z,4.12
2018-07-29T21:27:44.226Z,6.60
2018-07-29T21:30:12.254Z,4.35
2018-07-29T21:32:40.594Z,4.40
2018-07-29T21:35:08.888Z,4.10
2018-07-29T21:37:37.270Z,4.20
2018-07-29T21:40:05.310Z,3.87
2018-07-29T21:42:33.366Z,3.60
2018-07-29T21:45:01.471Z,3.58
2018-07-29T21:47:29.573Z,3.60
2018-07-29T21:49:57.938Z,3.62
2018-07-29T21:52:25.993Z,3.60
2018-07-29T21:54:54.068Z,3.60
2018-07-29T21:57:22.460Z,3.50
2018-07-29T21:59:50.839Z,3.80
2018-07-29T22:02:23.211Z,3.70
2018-07-29T22:04:52.413Z,3.60
2018-07-29T22:07:20.769Z,3.90
2018-07-29T22:09:48.801Z,3.65
2018-07-29T22:12:17.137Z,3.50
2018-07-29T22:14:45.518Z,3.60
2018-07-29T22:17:13.578Z,3.95
2018-07-29T22:19:41.824Z,3.70
2018-07-29T22:22:10.278Z,3.62
2018-07-29T22:24:39.446Z,3.65
2018-07-29T22:27:07.787Z,3.60
2018-07-29T22:29:41.599Z,4.20
2018-07-29T22:32:10.930Z,3.70
2018-07-29T22:34:39.098Z,4.00
2018-07-29T22:37:07.893Z,3.72
2018-07-29T22:39:36.582Z,4.15
2018-07-29T22:42:04.689Z,3.87
2018-07-29T22:44:32.825Z,3.90
2018-07-29T22:47:00.929Z,4.00
2018-07-29T22:49:29.283Z,3.95
2018-07-29T22:51:57.566Z,4.08
2018-07-29T22:54:25.630Z,3.90
2018-07-29T22:56:53.697Z,4.30
2018-07-29T22:59:22.495Z,3.72
2018-07-29T23:01:50.866Z,4.07
2018-07-29T23:04:19.517Z,4.07
2018-07-29T23:06:47.829Z,4.33
2018-07-29T23:09:15.863Z,3.95
2018-07-29T23:11:43.994Z,3.90
2018-07-29T23:14:12.072Z,3.90
2018-07-29T23:16:40.440Z,3.70
2018-07-29T23:19:08.700Z,4.30
2018-07-29T23:21:36.977Z,3.80
2018-07-29T23:24:05.118Z,4.30
2018-07-29T23:26:33.499Z,3.93
2018-07-29T23:29:01.891Z,3.93
2018-07-29T23:31:30.295Z,3.67
2018-07-29T23:33:58.539Z,3.92
2018-07-29T23:36:26.583Z,3.80
2018-07-29T23:38:55.330Z,3.80
2018-07-29T23:41:23.385Z,4.20
2018-07-29T23:43:51.535Z,3.90
2018-07-29T23:46:19.854Z,4.10
2018-07-29T23:48:48.225Z,4.10
2018-07-29T23:51:16.273Z,3.80
2018-07-29T23:53:44.991Z,3.80
2018-07-29T23:56:13.262Z,4.03
2018-07-29T23:58:42.153Z,4.00
